Sedro Woolley, Washington
Current Conditions -  °F | °C
As of 3:55 PM on Sunday 23 Nov 2014 (Local Time) from KBVS Reporting Station
Clear Clear  
Wind Chill: 50°   Ceiling: Unl
Heat Index: 50°   Visibility: 10mi
Dew Point: 43°   Wind: 6mph
Humidity: 76%   Direction: 250°WSW
Pressure: 30.17"   Gusts: NA
Location:  48.54°N, 122.19°W
Report Text: KBVS 232355Z AUTO 25005KT 10SM CLR 10/06 A3017 RMK A01 P000
Loading
Personal Weather Stations






























Interactive Weather Map New forecast layout! Learn more

10-Day Weather Forecast

Advertisements
Track Severe Weather on mobile